createdAt,value
2022-11-05T00:00:34.212Z,9.78
2022-11-05T00:03:19.215Z,9.79
2022-11-05T00:06:10.631Z,9.81
2022-11-05T00:08:55.984Z,9.81
2022-11-05T00:11:42.702Z,9.80
2022-11-05T00:14:27.937Z,9.81
2022-11-05T00:16:54.329Z,9.78
2022-11-05T00:19:23.005Z,9.76
2022-11-05T00:22:08.040Z,9.75
2022-11-05T00:24:55.636Z,9.73
2022-11-05T00:27:22.034Z,9.69
2022-11-05T00:29:53.129Z,9.69
2022-11-05T00:32:21.838Z,9.73
2022-11-05T00:34:48.362Z,9.70
2022-11-05T00:37:14.718Z,9.71
2022-11-05T00:39:41.640Z,9.70
2022-11-05T00:42:26.563Z,9.70
2022-11-05T00:45:01.659Z,9.68
2022-11-05T00:47:46.917Z,9.67
2022-11-05T00:50:13.745Z,9.67
2022-11-05T00:52:55.755Z,9.67
2022-11-05T00:55:25.198Z,9.67
2022-11-05T00:57:52.168Z,9.66
2022-11-05T01:00:23.819Z,9.67
2022-11-05T01:02:50.477Z,9.64
2022-11-05T01:05:17.568Z,9.67
2022-11-05T01:07:44.403Z,9.66
2022-11-05T01:10:10.894Z,9.70
2022-11-05T01:12:37.350Z,9.67
2022-11-05T01:15:04.246Z,9.65
2022-11-05T01:17:30.732Z,9.68
2022-11-05T01:20:02.018Z,9.67
2022-11-05T01:22:33.042Z,9.70
2022-11-05T01:24:59.524Z,9.66
2022-11-05T01:27:28.981Z,9.66
2022-11-05T01:29:55.443Z,9.68
2022-11-05T01:32:22.013Z,9.68
2022-11-05T01:34:49.343Z,9.73
2022-11-05T01:37:15.854Z,9.75
2022-11-05T01:39:42.276Z,9.69
2022-11-05T01:42:21.048Z,9.68
2022-11-05T01:44:56.516Z,9.71
2022-11-05T01:47:54.496Z,9.69
2022-11-05T01:50:20.908Z,9.66
2022-11-05T01:52:49.777Z,9.67
2022-11-05T01:55:23.945Z,9.69
2022-11-05T01:57:52.897Z,9.66
2022-11-05T02:00:19.470Z,9.68
2022-11-05T02:02:48.713Z,9.66
2022-11-05T02:05:15.958Z,9.66
2022-11-05T02:07:48.742Z,9.71
2022-11-05T02:10:17.946Z,9.67
2022-11-05T02:12:48.213Z,9.65
2022-11-05T02:15:18.152Z,9.67
2022-11-05T02:17:54.979Z,9.67
2022-11-05T02:20:38.567Z,9.65
2022-11-05T02:23:22.998Z,9.61
2022-11-05T02:26:17.367Z,9.64
2022-11-05T02:29:29.334Z,9.62
2022-11-05T02:32:30.879Z,9.65
2022-11-05T02:35:00.208Z,9.66
2022-11-05T02:37:40.649Z,9.62
2022-11-05T02:40:52.602Z,9.61
2022-11-05T02:43:31.114Z,9.60
2022-11-05T02:46:13.788Z,9.53
2022-11-05T02:48:45.459Z,9.56
2022-11-05T02:51:15.240Z,9.62
2022-11-05T02:54:11.877Z,9.61
2022-11-05T02:56:44.201Z,9.56
2022-11-05T02:59:10.656Z,9.59
2022-11-05T03:01:39.064Z,9.57
2022-11-05T03:04:09.312Z,9.63
2022-11-05T03:06:44.418Z,9.61
2022-11-05T03:09:27.250Z,9.64
2022-11-05T03:12:32.467Z,9.64
2022-11-05T03:15:26.151Z,9.61
2022-11-05T03:17:58.345Z,9.56
2022-11-05T03:20:58.948Z,9.58
2022-11-05T03:23:42.589Z,9.54
2022-11-05T03:26:35.726Z,9.44
2022-11-05T03:29:24.186Z,9.48
2022-11-05T03:31:54.222Z,9.45
2022-11-05T03:34:29.328Z,9.45
2022-11-05T03:37:02.536Z,9.42
2022-11-05T03:39:37.627Z,9.42
2022-11-05T03:42:07.643Z,9.41
2022-11-05T03:44:38.947Z,9.40
2022-11-05T03:47:20.983Z,9.39
2022-11-05T03:49:57.756Z,9.40
2022-11-05T03:52:28.987Z,9.36
2022-11-05T03:54:55.887Z,9.36
2022-11-05T03:57:36.346Z,9.32
2022-11-05T04:00:07.509Z,9.29
2022-11-05T04:02:38.450Z,9.29
2022-11-05T04:05:05.516Z,9.31
2022-11-05T04:07:50.278Z,9.31
2022-11-05T04:10:34.870Z,9.32
2022-11-05T04:13:19.721Z,9.34
2022-11-05T04:16:05.019Z,9.34
2022-11-05T04:18:31.534Z,9.34
2022-11-05T04:21:16.558Z,9.32
2022-11-05T04:24:18.294Z,9.32
2022-11-05T04:26:45.314Z,9.32
2022-11-05T04:29:33.048Z,9.32
2022-11-05T04:32:01.662Z,9.29
2022-11-05T04:34:28.081Z,9.25
2022-11-05T04:36:54.564Z,9.23
2022-11-05T04:39:21.363Z,9.23
2022-11-05T04:41:50.929Z,9.18
2022-11-05T04:44:17.465Z,9.18
2022-11-05T04:46:43.947Z,9.18
2022-11-05T04:49:12.570Z,9.15
2022-11-05T04:51:39.066Z,9.14
2022-11-05T04:54:05.551Z,9.13
2022-11-05T04:56:32.063Z,9.09
2022-11-05T04:58:58.470Z,9.10
2022-11-05T05:01:25.505Z,9.08
2022-11-05T05:03:53.876Z,9.08
2022-11-05T05:06:21.565Z,9.09
2022-11-05T05:08:49.631Z,9.09
2022-11-05T05:11:18.763Z,9.09
2022-11-05T05:13:45.472Z,9.06
2022-11-05T05:16:24.223Z,9.04
2022-11-05T05:18:51.489Z,9.02
2022-11-05T05:21:38.245Z,9.02
2022-11-05T05:24:24.925Z,8.99
2022-11-05T05:26:53.642Z,8.97
2022-11-05T05:29:20.023Z,8.94
2022-11-05T05:31:48.795Z,8.91
2022-11-05T05:34:15.326Z,8.92
2022-11-05T05:36:41.741Z,8.91
2022-11-05T05:39:10.801Z,8.89
2022-11-05T05:41:37.304Z,8.89
2022-11-05T05:44:05.667Z,8.88
2022-11-05T05:46:36.958Z,8.86
2022-11-05T05:49:07.869Z,8.84
2022-11-05T05:51:37.592Z,8.84
2022-11-05T05:54:04.111Z,8.83
2022-11-05T05:56:30.646Z,8.81
2022-11-05T05:58:59.578Z,8.80
2022-11-05T06:01:28.433Z,8.78
2022-11-05T06:03:54.877Z,8.76
2022-11-05T06:06:21.387Z,8.77
2022-11-05T06:08:50.362Z,8.75
2022-11-05T06:11:16.826Z,8.73
2022-11-05T06:13:45.978Z,8.72
2022-11-05T06:16:12.366Z,8.68
2022-11-05T06:18:39.063Z,8.66
2022-11-05T06:21:11.684Z,8.65
2022-11-05T06:23:40.319Z,8.58
2022-11-05T06:26:12.457Z,8.56
2022-11-05T06:28:42.128Z,8.55
2022-11-05T06:31:10.004Z,8.54
2022-11-05T06:33:37.081Z,8.52
2022-11-05T06:36:04.827Z,8.54
2022-11-05T06:38:36.309Z,8.56
2022-11-05T06:41:09.842Z,8.57
2022-11-05T06:43:41.426Z,8.57
2022-11-05T06:46:08.338Z,8.62
2022-11-05T06:48:35.122Z,8.66
2022-11-05T06:51:04.683Z,8.68
2022-11-05T06:53:31.425Z,8.70
2022-11-05T06:55:57.859Z,8.71
2022-11-05T06:58:24.262Z,8.69
2022-11-05T07:00:53.221Z,8.76
2022-11-05T07:03:19.618Z,8.73
2022-11-05T07:05:48.937Z,8.76
2022-11-05T07:08:16.216Z,8.73
2022-11-05T07:10:42.739Z,8.77
2022-11-05T07:13:09.551Z,8.81
2022-11-05T07:15:37.377Z,8.80
2022-11-05T07:18:09.445Z,8.82
2022-11-05T07:20:35.850Z,8.87
2022-11-05T07:23:05.973Z,8.88
2022-11-05T07:25:33.761Z,8.89
2022-11-05T07:28:00.578Z,8.89
2022-11-05T07:30:27.528Z,8.88
2022-11-05T07:32:53.986Z,8.90
2022-11-05T07:35:23.487Z,8.93
2022-11-05T07:37:51.474Z,8.95
2022-11-05T07:40:21.884Z,8.99
2022-11-05T07:42:51.320Z,8.99
2022-11-05T07:45:18.108Z,9.02
2022-11-05T07:47:51.675Z,9.01
2022-11-05T07:50:19.793Z,9.10
2022-11-05T07:52:47.858Z,9.10
2022-11-05T07:55:15.751Z,9.14
2022-11-05T07:57:50.781Z,9.15
2022-11-05T08:00:22.540Z,9.15
2022-11-05T08:03:12.057Z,9.19
2022-11-05T08:05:41.022Z,9.20
2022-11-05T08:08:09.056Z,9.26
2022-11-05T08:10:39.064Z,9.29
2022-11-05T08:13:06.417Z,9.32
2022-11-05T08:15:33.324Z,9.43
2022-11-05T08:18:00.983Z,9.54
2022-11-05T08:20:27.863Z,9.60
2022-11-05T08:22:54.740Z,9.62
2022-11-05T08:25:21.400Z,9.52
2022-11-05T08:27:48.400Z,9.64
2022-11-05T08:30:14.876Z,9.63
2022-11-05T08:32:41.304Z,9.50
2022-11-05T08:35:07.756Z,9.48
2022-11-05T08:37:36.760Z,9.58
2022-11-05T08:40:05.993Z,9.60
2022-11-05T08:42:32.495Z,9.64
2022-11-05T08:44:58.870Z,9.69
2022-11-05T08:47:25.431Z,9.70
2022-11-05T08:49:51.841Z,9.67
2022-11-05T08:52:18.292Z,9.62
2022-11-05T08:54:44.783Z,9.63
2022-11-05T08:57:14.229Z,9.70
2022-11-05T08:59:40.568Z,9.70
2022-11-05T09:02:07.160Z,9.85
2022-11-05T09:04:33.752Z,9.96
2022-11-05T09:07:00.179Z,10.10
2022-11-05T09:09:26.637Z,10.14
2022-11-05T09:12:11.728Z,10.21
2022-11-05T09:14:39.391Z,10.17
2022-11-05T09:17:15.684Z,10.23
2022-11-05T09:19:42.268Z,10.12
2022-11-05T09:22:08.713Z,10.13
2022-11-05T09:24:37.405Z,10.21
2022-11-05T09:27:03.874Z,10.20
2022-11-05T09:29:30.296Z,10.27
2022-11-05T09:31:56.889Z,10.27
2022-11-05T09:34:23.599Z,10.18
2022-11-05T09:36:49.981Z,10.24
2022-11-05T09:39:16.349Z,10.36
2022-11-05T09:41:46.947Z,10.30
2022-11-05T09:44:18.872Z,10.38
2022-11-05T09:47:06.073Z,10.54
2022-11-05T09:49:44.209Z,10.58
2022-11-05T09:52:16.076Z,10.67
2022-11-05T09:54:42.595Z,10.65
2022-11-05T09:57:18.643Z,10.70
2022-11-05T09:59:47.441Z,10.73
2022-11-05T10:02:25.516Z,10.70
2022-11-05T10:04:56.581Z,10.72
2022-11-05T10:07:28.175Z,10.73
2022-11-05T10:10:05.972Z,10.71
2022-11-05T10:12:39.213Z,10.61
2022-11-05T10:15:20.630Z,10.63
2022-11-05T10:17:53.513Z,10.63
2022-11-05T10:20:33.956Z,10.68
2022-11-05T10:23:18.265Z,10.70
2022-11-05T10:25:54.771Z,10.81
2022-11-05T10:28:24.310Z,10.71
2022-11-05T10:30:59.950Z,10.70
2022-11-05T10:33:48.077Z,10.74
2022-11-05T10:36:20.775Z,10.65
2022-11-05T10:38:47.242Z,10.62
2022-11-05T10:41:33.495Z,10.70
2022-11-05T10:44:31.022Z,10.77
2022-11-05T10:47:42.363Z,10.77
2022-11-05T10:50:18.566Z,10.71
2022-11-05T10:53:03.490Z,10.89
2022-11-05T10:55:34.460Z,10.99
2022-11-05T10:58:10.528Z,10.92
2022-11-05T11:00:37.597Z,11.12
2022-11-05T11:03:25.334Z,11.15
2022-11-05T11:05:59.992Z,11.01
2022-11-05T11:08:27.714Z,11.11
2022-11-05T11:11:06.102Z,11.08
2022-11-05T11:13:57.865Z,11.13
2022-11-05T11:16:27.344Z,11.09
2022-11-05T11:18:54.970Z,11.12
2022-11-05T11:21:23.263Z,11.02
2022-11-05T11:23:58.895Z,10.96
2022-11-05T11:26:33.163Z,10.80
2022-11-05T11:29:05.996Z,10.76
2022-11-05T11:31:39.270Z,10.66
2022-11-05T11:34:43.645Z,10.53
2022-11-05T11:37:31.452Z,10.54
2022-11-05T11:40:04.418Z,10.52
2022-11-05T11:42:34.801Z,10.55
2022-11-05T11:45:14.869Z,10.62
2022-11-05T11:47:47.065Z,10.79
2022-11-05T11:50:33.303Z,10.91
2022-11-05T11:53:17.857Z,11.02
2022-11-05T11:56:03.006Z,11.26
2022-11-05T11:58:41.679Z,11.35
2022-11-05T12:01:25.117Z,11.43
2022-11-05T12:03:54.559Z,11.49
2022-11-05T12:06:26.986Z,11.61
2022-11-05T12:09:06.821Z,11.72
2022-11-05T12:11:41.802Z,11.62
2022-11-05T12:14:10.912Z,11.57
2022-11-05T12:16:40.188Z,11.53
2022-11-05T12:19:14.150Z,11.58
2022-11-05T12:22:02.337Z,11.67
2022-11-05T12:24:35.592Z,11.60
2022-11-05T12:27:01.890Z,11.51
2022-11-05T12:29:35.503Z,11.39
2022-11-05T12:32:20.090Z,11.37
2022-11-05T12:34:49.666Z,11.45
2022-11-05T12:37:23.509Z,11.51
2022-11-05T12:39:55.636Z,11.62
2022-11-05T12:42:33.271Z,11.61
2022-11-05T12:45:02.286Z,11.58
2022-11-05T12:47:34.763Z,11.44
2022-11-05T12:50:04.258Z,11.47
2022-11-05T12:52:33.688Z,11.48
2022-11-05T12:55:03.388Z,11.42
2022-11-05T12:57:31.364Z,11.48
2022-11-05T13:00:03.516Z,11.57
2022-11-05T13:02:30.075Z,11.62
2022-11-05T13:04:59.224Z,11.71
2022-11-05T13:07:30.496Z,11.73
2022-11-05T13:09:59.438Z,11.75
2022-11-05T13:12:27.586Z,11.81
2022-11-05T13:14:59.260Z,11.82
2022-11-05T13:17:32.826Z,11.87
2022-11-05T13:20:05.652Z,11.91
2022-11-05T13:22:35.029Z,11.99
2022-11-05T13:25:17.150Z,11.96
2022-11-05T13:27:49.619Z,11.87
2022-11-05T13:30:26.266Z,11.92
2022-11-05T13:32:59.572Z,11.88
2022-11-05T13:35:49.262Z,11.83
2022-11-05T13:38:39.368Z,11.86
2022-11-05T13:41:24.593Z,11.87
2022-11-05T13:43:50.848Z,11.86
2022-11-05T13:46:25.298Z,11.86
2022-11-05T13:48:57.440Z,11.82
2022-11-05T13:51:23.757Z,11.77
2022-11-05T13:54:08.736Z,11.63
2022-11-05T13:56:50.066Z,11.41
2022-11-05T13:59:34.941Z,11.26
2022-11-05T14:02:04.241Z,11.14
2022-11-05T14:04:32.679Z,11.12
2022-11-05T14:07:28.745Z,10.99
2022-11-05T14:09:56.848Z,10.90
2022-11-05T14:12:30.500Z,10.84
2022-11-05T14:15:05.203Z,10.86
2022-11-05T14:17:33.794Z,10.80
2022-11-05T14:20:04.038Z,10.82
2022-11-05T14:22:33.348Z,10.83
2022-11-05T14:25:00.680Z,10.86
2022-11-05T14:27:36.120Z,10.83
2022-11-05T14:30:22.444Z,10.84
2022-11-05T14:32:50.723Z,10.87
2022-11-05T14:35:33.654Z,10.88
2022-11-05T14:38:00.057Z,10.98
2022-11-05T14:40:36.675Z,11.07
2022-11-05T14:43:05.664Z,11.19
2022-11-05T14:45:37.172Z,11.25
2022-11-05T14:48:08.278Z,11.19
2022-11-05T14:50:40.226Z,11.12
2022-11-05T14:53:11.292Z,11.03
2022-11-05T14:55:45.900Z,11.01
2022-11-05T14:58:26.772Z,10.91
2022-11-05T15:00:53.924Z,10.82
2022-11-05T15:03:38.609Z,10.68
2022-11-05T15:06:26.073Z,10.55
2022-11-05T15:08:58.838Z,10.45
2022-11-05T15:11:38.932Z,10.32
2022-11-05T15:14:20.048Z,10.21
2022-11-05T15:16:51.937Z,10.12
2022-11-05T15:19:22.565Z,10.03
2022-11-05T15:21:51.586Z,9.92
2022-11-05T15:24:19.319Z,9.83
2022-11-05T15:26:58.259Z,9.77
2022-11-05T15:29:26.749Z,9.68
2022-11-05T15:31:53.271Z,9.63
2022-11-05T15:34:24.896Z,9.54
2022-11-05T15:37:01.976Z,9.43
2022-11-05T15:39:29.677Z,9.36
2022-11-05T15:41:58.918Z,9.27
2022-11-05T15:44:30.228Z,9.18
2022-11-05T15:47:29.021Z,9.07
2022-11-05T15:49:56.423Z,8.97
2022-11-05T15:52:25.834Z,8.83
2022-11-05T15:55:10.422Z,8.73
2022-11-05T15:57:40.350Z,8.64
2022-11-05T16:00:08.390Z,8.53
2022-11-05T16:02:35.928Z,8.43
2022-11-05T16:05:09.356Z,8.32
2022-11-05T16:07:35.834Z,8.21
2022-11-05T16:10:05.052Z,8.10
2022-11-05T16:12:35.060Z,8.03
2022-11-05T16:15:10.633Z,7.94
2022-11-05T16:17:39.716Z,7.86
2022-11-05T16:20:38.740Z,7.82
2022-11-05T16:23:06.979Z,7.76
2022-11-05T16:25:37.073Z,7.71
2022-11-05T16:28:08.862Z,7.65
2022-11-05T16:30:35.285Z,7.60
2022-11-05T16:33:05.985Z,7.54
2022-11-05T16:35:32.397Z,7.50
2022-11-05T16:38:00.877Z,7.47
2022-11-05T16:40:27.182Z,7.42
2022-11-05T16:42:53.893Z,7.39
2022-11-05T16:45:21.676Z,7.38
2022-11-05T16:47:48.538Z,7.34
2022-11-05T16:50:23.576Z,7.32
2022-11-05T16:52:50.210Z,7.26
2022-11-05T16:55:17.162Z,7.24
2022-11-05T16:57:47.529Z,7.23
2022-11-05T17:00:16.053Z,7.23
2022-11-05T17:02:42.751Z,7.16
2022-11-05T17:05:20.927Z,7.12
2022-11-05T17:07:54.867Z,7.07
2022-11-05T17:10:22.197Z,7.05
2022-11-05T17:12:49.015Z,7.01
2022-11-05T17:15:16.930Z,6.95
2022-11-05T17:17:43.478Z,6.93
2022-11-05T17:20:14.742Z,6.87
2022-11-05T17:22:43.287Z,6.79
2022-11-05T17:25:09.609Z,6.73
2022-11-05T17:27:35.991Z,6.69
2022-11-05T17:30:02.341Z,6.70
2022-11-05T17:32:28.741Z,6.63
2022-11-05T17:34:55.043Z,6.56
2022-11-05T17:37:21.347Z,6.51
2022-11-05T17:39:47.759Z,6.43
2022-11-05T17:42:14.106Z,6.41
2022-11-05T17:44:40.381Z,6.34
2022-11-05T17:47:06.844Z,6.25
2022-11-05T17:49:33.303Z,6.21
2022-11-05T17:51:59.718Z,6.21
2022-11-05T17:54:26.087Z,6.13
2022-11-05T17:56:52.415Z,6.12
2022-11-05T17:59:18.779Z,6.06
2022-11-05T18:01:46.048Z,6.03
2022-11-05T18:04:15.097Z,5.99
2022-11-05T18:06:41.736Z,5.94
2022-11-05T18:09:09.199Z,5.92
2022-11-05T18:11:36.316Z,5.88
2022-11-05T18:14:02.839Z,5.89
2022-11-05T18:16:29.421Z,5.83
2022-11-05T18:18:55.840Z,5.80
2022-11-05T18:21:22.145Z,5.75
2022-11-05T18:23:48.553Z,5.76
2022-11-05T18:26:15.921Z,5.81
2022-11-05T18:28:42.816Z,5.78
2022-11-05T18:31:18.324Z,5.77
2022-11-05T18:33:47.321Z,5.81
2022-11-05T18:36:20.821Z,5.84
2022-11-05T18:38:47.301Z,5.82
2022-11-05T18:41:13.948Z,5.87
2022-11-05T18:43:40.480Z,5.84
2022-11-05T18:46:07.707Z,5.98
2022-11-05T18:48:34.826Z,5.92
2022-11-05T18:51:06.399Z,5.91
2022-11-05T18:53:32.795Z,6.15
2022-11-05T18:56:06.225Z,6.04
2022-11-05T18:58:32.684Z,6.11
2022-11-05T19:01:02.606Z,6.02
2022-11-05T19:03:33.546Z,5.96
2022-11-05T19:06:03.589Z,5.91
2022-11-05T19:08:33.473Z,5.89
2022-11-05T19:11:00.160Z,5.87
2022-11-05T19:13:26.612Z,5.81
2022-11-05T19:15:52.927Z,5.77
2022-11-05T19:18:19.347Z,5.77
2022-11-05T19:20:48.205Z,5.76
2022-11-05T19:23:14.585Z,5.74
2022-11-05T19:25:40.929Z,5.75
2022-11-05T19:28:07.279Z,5.80
2022-11-05T19:30:33.615Z,5.78
2022-11-05T19:32:59.983Z,5.79
2022-11-05T19:35:26.315Z,5.87
2022-11-05T19:37:53.456Z,5.82
2022-11-05T19:40:22.485Z,5.84
2022-11-05T19:42:48.763Z,5.96
2022-11-05T19:45:42.858Z,6.24
2022-11-05T19:48:01.558Z,6.03
2022-11-05T19:50:27.881Z,6.05
2022-11-05T19:52:54.208Z,6.04
2022-11-05T19:55:20.579Z,6.04
2022-11-05T19:57:47.066Z,5.92
2022-11-05T20:00:15.836Z,5.94
2022-11-05T20:02:43.417Z,5.85
2022-11-05T20:05:12.327Z,5.90
2022-11-05T20:07:38.872Z,5.88
2022-11-05T20:10:05.870Z,5.84
2022-11-05T20:12:32.642Z,5.85
2022-11-05T20:14:58.936Z,6.00
2022-11-05T20:17:25.320Z,6.02
2022-11-05T20:19:54.018Z,5.97
2022-11-05T20:22:20.369Z,5.93
2022-11-05T20:24:46.859Z,5.99
2022-11-05T20:27:13.174Z,5.91
2022-11-05T20:29:39.882Z,5.82
2022-11-05T20:32:08.819Z,5.90
2022-11-05T20:34:35.260Z,5.81
2022-11-05T20:37:01.760Z,5.80
2022-11-05T20:39:30.310Z,5.87
2022-11-05T20:41:56.853Z,5.93
2022-11-05T20:44:23.265Z,6.01
2022-11-05T20:46:51.733Z,5.94
2022-11-05T20:49:22.563Z,5.83
2022-11-05T20:51:51.376Z,5.78
2022-11-05T20:54:17.727Z,5.81
2022-11-05T20:56:44.039Z,5.76
2022-11-05T20:59:12.863Z,5.67
2022-11-05T21:01:39.667Z,5.83
2022-11-05T21:04:06.531Z,5.88
2022-11-05T21:06:33.677Z,5.92
2022-11-05T21:09:00.643Z,5.81
2022-11-05T21:11:26.979Z,5.69
2022-11-05T21:13:55.748Z,5.58
2022-11-05T21:16:22.477Z,5.58
2022-11-05T21:18:48.920Z,5.50
2022-11-05T21:21:17.084Z,5.42
2022-11-05T21:23:43.638Z,5.34
2022-11-05T21:26:11.812Z,5.30
2022-11-05T21:28:39.353Z,5.26
2022-11-05T21:31:06.431Z,5.29
2022-11-05T21:33:33.481Z,5.25
2022-11-05T21:36:04.988Z,5.19
2022-11-05T21:38:31.376Z,5.16
2022-11-05T21:41:00.082Z,5.18
2022-11-05T21:43:29.123Z,5.19
2022-11-05T21:45:55.577Z,5.43
2022-11-05T21:48:21.916Z,5.32
2022-11-05T21:51:09.435Z,5.27
2022-11-05T21:53:54.317Z,5.27
2022-11-05T21:56:40.888Z,5.26
2022-11-05T21:59:28.431Z,5.17
2022-11-05T22:02:01.500Z,5.11
2022-11-05T22:04:31.688Z,5.12
2022-11-05T22:06:58.358Z,5.07
2022-11-05T22:09:25.310Z,5.22
2022-11-05T22:11:52.061Z,5.13
2022-11-05T22:14:18.446Z,5.18
2022-11-05T22:16:44.890Z,5.09
2022-11-05T22:19:11.228Z,5.12
2022-11-05T22:21:37.646Z,5.06
2022-11-05T22:24:04.213Z,5.08
2022-11-05T22:26:32.707Z,5.04
2022-11-05T22:28:59.117Z,5.04
2022-11-05T22:31:35.714Z,5.03
2022-11-05T22:34:03.008Z,5.07
2022-11-05T22:36:31.505Z,5.14
2022-11-05T22:38:57.823Z,5.08
2022-11-05T22:41:24.106Z,5.09
2022-11-05T22:43:50.614Z,5.08
2022-11-05T22:46:21.738Z,5.07
2022-11-05T22:48:48.744Z,5.04
2022-11-05T22:51:16.963Z,5.03
2022-11-05T22:53:46.177Z,5.02
2022-11-05T22:56:13.831Z,5.05
2022-11-05T22:58:40.201Z,5.09
2022-11-05T23:01:07.832Z,5.08
2022-11-05T23:03:34.290Z,5.08
2022-11-05T23:06:01.790Z,5.06
2022-11-05T23:08:47.374Z,5.05
2022-11-05T23:11:41.505Z,5.11
2022-11-05T23:14:11.028Z,5.04
2022-11-05T23:16:55.989Z,5.09
2022-11-05T23:19:40.868Z,5.03
2022-11-05T23:22:30.443Z,5.00
2022-11-05T23:24:56.917Z,4.92
2022-11-05T23:27:23.862Z,4.88
2022-11-05T23:29:50.298Z,4.83
2022-11-05T23:32:25.907Z,4.79
2022-11-05T23:34:53.376Z,4.74
2022-11-05T23:37:38.983Z,4.74
2022-11-05T23:40:07.496Z,4.72
2022-11-05T23:42:52.624Z,4.69
2022-11-05T23:45:37.676Z,4.73
2022-11-05T23:48:25.296Z,4.85
2022-11-05T23:50:59.926Z,4.71
2022-11-05T23:53:26.826Z,4.75
2022-11-05T23:55:53.440Z,4.66
2022-11-05T23:58:19.854Z,4.73
